createdAt,value
2019-01-14T00:01:29.218Z,0.40
2019-01-14T00:03:57.243Z,0.40
2019-01-14T00:06:25.404Z,0.80
2019-01-14T00:08:53.755Z,0.20
2019-01-14T00:11:21.784Z,0.30
2019-01-14T00:13:49.828Z,0.37
2019-01-14T00:16:17.842Z,0.40
2019-01-14T00:18:45.906Z,0.30
2019-01-14T00:21:13.924Z,0.40
2019-01-14T00:23:41.955Z,0.37
2019-01-14T00:26:10.863Z,0.50
2019-01-14T00:28:39.099Z,0.30
2019-01-14T00:31:07.148Z,0.30
2019-01-14T00:33:35.220Z,0.50
2019-01-14T00:36:03.186Z,0.70
2019-01-14T00:38:31.909Z,0.93
2019-01-14T00:40:59.893Z,0.50
2019-01-14T00:43:27.946Z,1.80
2019-01-14T00:45:55.979Z,0.57
2019-01-14T00:48:24.004Z,0.60
2019-01-14T00:50:52.024Z,0.60
2019-01-14T00:53:20.069Z,0.90
2019-01-14T00:55:48.064Z,1.33
2019-01-14T00:58:16.228Z,0.40
2019-01-14T01:00:44.265Z,0.40
2019-01-14T01:03:12.309Z,0.30
2019-01-14T01:05:40.344Z,0.40
2019-01-14T01:08:08.370Z,0.53
2019-01-14T01:10:36.472Z,1.30
2019-01-14T01:13:04.820Z,0.43
2019-01-14T01:15:32.844Z,0.40
2019-01-14T01:18:02.839Z,0.40
2019-01-14T01:20:31.281Z,0.47
2019-01-14T01:22:59.312Z,1.73
2019-01-14T01:25:27.369Z,0.43
2019-01-14T01:27:55.390Z,0.73
2019-01-14T01:30:23.424Z,0.60
2019-01-14T01:32:51.465Z,0.63
2019-01-14T01:35:19.514Z,0.90
2019-01-14T01:37:47.550Z,0.70
2019-01-14T01:40:20.068Z,0.33
2019-01-14T01:42:48.113Z,1.23
2019-01-14T01:45:16.546Z,1.27
2019-01-14T01:47:44.616Z,0.47
2019-01-14T01:50:16.528Z,0.80
2019-01-14T01:52:44.579Z,0.40
2019-01-14T01:55:12.638Z,0.50
2019-01-14T01:57:40.696Z,1.10
2019-01-14T02:00:13.655Z,1.37
2019-01-14T02:02:41.702Z,0.50
2019-01-14T02:05:10.577Z,1.70
2019-01-14T02:07:38.594Z,0.37
2019-01-14T02:10:10.158Z,1.43
2019-01-14T02:12:38.198Z,0.53
2019-01-14T02:15:15.896Z,0.50
2019-01-14T02:17:44.023Z,0.50
2019-01-14T02:20:15.155Z,0.50
2019-01-14T02:22:43.643Z,0.50
2019-01-14T02:25:13.534Z,0.40
2019-01-14T02:27:42.026Z,0.50
2019-01-14T02:30:18.087Z,0.50
2019-01-14T02:32:46.108Z,0.40
2019-01-14T02:35:14.281Z,0.50
2019-01-14T02:37:42.354Z,0.50
2019-01-14T02:40:14.055Z,0.60
2019-01-14T02:42:42.092Z,0.63
2019-01-14T02:45:10.517Z,0.60
2019-01-14T02:47:38.550Z,0.40
2019-01-14T02:50:07.728Z,1.03
2019-01-14T02:52:39.760Z,0.40
2019-01-14T02:55:07.254Z,0.60
2019-01-14T02:57:36.478Z,0.53
2019-01-14T03:00:19.456Z,0.87
2019-01-14T03:02:47.838Z,2.10
2019-01-14T03:05:15.895Z,1.13
2019-01-14T03:07:44.956Z,1.27
2019-01-14T03:10:13.215Z,0.43
2019-01-14T03:12:41.259Z,1.20
2019-01-14T03:15:09.816Z,0.73
2019-01-14T03:17:37.860Z,0.60
2019-01-14T03:20:08.786Z,0.63
2019-01-14T03:22:36.911Z,0.70
2019-01-14T03:25:05.906Z,0.53
2019-01-14T03:27:34.393Z,1.33
2019-01-14T03:30:04.364Z,1.10
2019-01-14T03:32:32.512Z,0.53
2019-01-14T03:35:00.630Z,0.40
2019-01-14T03:37:28.770Z,0.70
2019-01-14T03:39:56.815Z,1.00
2019-01-14T03:42:24.864Z,0.50
2019-01-14T03:44:52.937Z,0.60
2019-01-14T03:47:21.015Z,0.57
2019-01-14T03:49:50.029Z,0.67
2019-01-14T03:52:18.057Z,0.60
2019-01-14T03:54:46.422Z,0.50
2019-01-14T03:57:14.487Z,1.13
2019-01-14T03:59:42.575Z,0.80
2019-01-14T04:02:10.630Z,0.57
2019-01-14T04:04:38.687Z,1.10
2019-01-14T04:07:13.552Z,0.53
2019-01-14T04:09:36.769Z,0.97
2019-01-14T04:12:04.846Z,2.30
2019-01-14T04:14:32.928Z,0.50
2019-01-14T04:17:01.188Z,0.50
2019-01-14T04:19:29.256Z,0.87
2019-01-14T04:21:57.308Z,0.80
2019-01-14T04:24:25.949Z,0.70
2019-01-14T04:26:54.022Z,0.60
2019-01-14T04:29:22.074Z,0.93
2019-01-14T04:31:51.276Z,1.73
2019-01-14T04:34:19.325Z,1.07
2019-01-14T04:36:47.402Z,0.70
2019-01-14T04:39:15.671Z,0.93
2019-01-14T04:41:44.309Z,1.17
2019-01-14T04:44:12.501Z,0.73
2019-01-14T04:46:40.582Z,0.93
2019-01-14T04:49:08.673Z,0.83
2019-01-14T04:51:37.074Z,1.17
2019-01-14T04:54:05.245Z,0.63
2019-01-14T04:56:33.304Z,0.67
2019-01-14T04:59:01.361Z,1.07
2019-01-14T05:01:29.607Z,0.90
2019-01-14T05:03:57.641Z,1.00
2019-01-14T05:06:26.837Z,2.10
2019-01-14T05:08:55.158Z,0.80
2019-01-14T05:11:23.230Z,2.10
2019-01-14T05:13:52.566Z,2.23
2019-01-14T05:16:20.618Z,0.60
2019-01-14T05:18:50.707Z,0.87
2019-01-14T05:21:18.782Z,1.00
2019-01-14T05:23:46.835Z,0.80
2019-01-14T05:26:15.017Z,0.83
2019-01-14T05:28:43.058Z,1.60
2019-01-14T05:31:11.567Z,0.60
2019-01-14T05:33:39.676Z,1.83
2019-01-14T05:36:08.903Z,0.73
2019-01-14T05:38:37.030Z,0.57
2019-01-14T05:41:05.519Z,1.23
2019-01-14T05:43:33.574Z,1.03
2019-01-14T05:46:01.753Z,2.00
2019-01-14T05:48:30.155Z,2.53
2019-01-14T05:50:58.268Z,1.60
2019-01-14T05:53:26.402Z,1.03
2019-01-14T05:55:54.491Z,2.00
2019-01-14T05:58:22.558Z,1.57
2019-01-14T06:00:50.646Z,1.20
2019-01-14T06:03:18.741Z,0.53
2019-01-14T06:05:46.889Z,1.33
2019-01-14T06:08:15.338Z,1.77
2019-01-14T06:10:43.447Z,0.90
2019-01-14T06:13:11.508Z,0.80
2019-01-14T06:15:39.595Z,3.07
2019-01-14T06:18:07.638Z,0.83
2019-01-14T06:20:35.902Z,1.17
2019-01-14T06:23:04.246Z,0.80
2019-01-14T06:25:32.417Z,1.53
2019-01-14T06:28:00.609Z,1.00
2019-01-14T06:30:29.757Z,1.33
2019-01-14T06:32:58.286Z,1.77
2019-01-14T06:35:26.296Z,0.97
2019-01-14T06:37:54.448Z,1.97
2019-01-14T06:40:22.736Z,2.13
2019-01-14T06:42:51.088Z,3.27
2019-01-14T06:45:19.144Z,2.77
2019-01-14T06:47:47.431Z,2.03
2019-01-14T06:50:17.496Z,2.40
2019-01-14T06:52:45.581Z,1.10
2019-01-14T06:55:14.170Z,1.40
2019-01-14T06:57:42.331Z,1.73
2019-01-14T07:00:23.804Z,3.93
2019-01-14T07:02:51.970Z,1.17
2019-01-14T07:05:20.253Z,1.27
2019-01-14T07:07:48.357Z,0.80
2019-01-14T07:10:21.937Z,2.93
2019-01-14T07:12:49.974Z,1.07
2019-01-14T07:15:19.091Z,2.37
2019-01-14T07:17:48.190Z,3.83
2019-01-14T07:20:17.792Z,1.10
2019-01-14T07:22:45.815Z,1.43
2019-01-14T07:25:13.845Z,1.80
2019-01-14T07:27:41.918Z,2.20
2019-01-14T07:30:13.641Z,1.90
2019-01-14T07:32:41.729Z,1.90
2019-01-14T07:35:10.025Z,1.47
2019-01-14T07:37:38.269Z,2.00
2019-01-14T07:40:08.652Z,1.00
2019-01-14T07:42:37.103Z,1.83
2019-01-14T07:45:05.702Z,2.10
2019-01-14T07:47:33.747Z,0.70
2019-01-14T07:50:02.388Z,2.37
2019-01-14T07:52:30.697Z,1.63
2019-01-14T07:54:59.066Z,2.60
2019-01-14T07:57:27.196Z,2.17
2019-01-14T07:59:55.245Z,2.10
2019-01-14T08:02:23.333Z,1.57
2019-01-14T08:04:51.415Z,0.80
2019-01-14T08:07:19.488Z,0.73
2019-01-14T08:09:47.672Z,1.80
2019-01-14T08:12:15.730Z,2.50
2019-01-14T08:14:43.782Z,2.20
2019-01-14T08:17:11.850Z,1.13
2019-01-14T08:19:39.923Z,1.07
2019-01-14T08:22:08.018Z,0.77
2019-01-14T08:24:36.046Z,1.10
2019-01-14T08:27:04.142Z,2.70
2019-01-14T08:29:32.562Z,1.40
2019-01-14T08:32:00.644Z,2.47
2019-01-14T08:34:28.680Z,1.47
2019-01-14T08:37:00.683Z,1.87
2019-01-14T08:39:26.742Z,0.80
2019-01-14T08:42:01.795Z,1.00
2019-01-14T08:44:41.304Z,2.33
2019-01-14T08:47:09.350Z,2.33
2019-01-14T08:49:37.736Z,1.40
2019-01-14T08:52:06.131Z,0.87
2019-01-14T08:54:34.181Z,1.77
2019-01-14T08:57:02.389Z,1.33
2019-01-14T08:59:31.371Z,1.10
2019-01-14T09:01:59.448Z,0.80
2019-01-14T09:04:32.314Z,3.10
2019-01-14T09:06:57.598Z,1.60
2019-01-14T09:09:25.617Z,1.20
2019-01-14T09:11:54.960Z,1.53
2019-01-14T09:14:22.979Z,0.77
2019-01-14T09:16:50.963Z,0.73
2019-01-14T09:19:19.094Z,1.90
2019-01-14T09:21:47.577Z,0.80
2019-01-14T09:24:15.622Z,0.90
2019-01-14T09:26:45.029Z,1.60
2019-01-14T09:29:13.156Z,0.80
2019-01-14T09:31:41.709Z,1.17
2019-01-14T09:34:09.835Z,2.73
2019-01-14T09:36:37.880Z,0.97
2019-01-14T09:39:09.249Z,1.70
2019-01-14T09:41:37.255Z,1.87
2019-01-14T09:44:05.995Z,0.73
2019-01-14T09:46:33.998Z,1.20
2019-01-14T09:49:02.042Z,1.10
2019-01-14T09:51:30.044Z,1.30
2019-01-14T09:53:58.036Z,1.37
2019-01-14T09:56:26.050Z,1.23
2019-01-14T09:58:55.529Z,1.30
2019-01-14T10:01:23.547Z,1.27
2019-01-14T10:03:51.584Z,0.70
2019-01-14T10:06:19.487Z,1.60
2019-01-14T10:08:47.496Z,1.53
2019-01-14T10:11:15.485Z,0.87
2019-01-14T10:13:43.508Z,1.60
2019-01-14T10:16:11.470Z,1.17
2019-01-14T10:18:39.504Z,0.73
2019-01-14T10:21:07.500Z,2.20
2019-01-14T10:23:35.873Z,1.10
2019-01-14T10:26:04.078Z,1.30
2019-01-14T10:28:32.103Z,1.47
2019-01-14T10:31:00.450Z,1.13
2019-01-14T10:33:28.527Z,1.30
2019-01-14T10:35:56.722Z,1.27
2019-01-14T10:38:24.736Z,0.77
2019-01-14T10:40:52.705Z,2.30
2019-01-14T10:43:20.683Z,1.63
2019-01-14T10:45:48.696Z,0.50
2019-01-14T10:48:16.703Z,1.37
2019-01-14T10:50:44.678Z,0.93
2019-01-14T10:53:12.782Z,1.30
2019-01-14T10:55:40.741Z,0.87
2019-01-14T10:58:08.822Z,1.07
2019-01-14T11:00:36.803Z,1.00
2019-01-14T11:03:04.795Z,2.23
2019-01-14T11:05:32.796Z,1.03
2019-01-14T11:08:00.795Z,1.37
2019-01-14T11:10:28.803Z,1.30
2019-01-14T11:12:56.780Z,1.40
2019-01-14T11:15:24.934Z,2.33
2019-01-14T11:17:52.941Z,0.70
2019-01-14T11:20:27.414Z,1.70
2019-01-14T11:22:55.549Z,1.17
2019-01-14T11:25:23.580Z,1.13
2019-01-14T11:27:51.611Z,0.83
2019-01-14T11:30:23.937Z,1.53
2019-01-14T11:32:51.941Z,1.83
2019-01-14T11:35:19.976Z,1.43
2019-01-14T11:37:47.972Z,1.33
2019-01-14T11:40:19.657Z,1.07
2019-01-14T11:42:47.648Z,0.83
2019-01-14T11:45:15.662Z,1.17
2019-01-14T11:47:43.661Z,1.27
2019-01-14T11:50:13.921Z,1.10
2019-01-14T11:52:42.308Z,3.07
2019-01-14T11:55:10.525Z,0.90
2019-01-14T11:57:38.577Z,1.03
2019-01-14T12:00:18.078Z,1.97
2019-01-14T12:02:46.051Z,1.10
2019-01-14T12:05:14.330Z,0.80
2019-01-14T12:07:42.507Z,2.43
2019-01-14T12:10:10.652Z,2.23
2019-01-14T12:12:38.634Z,0.80
2019-01-14T12:15:12.729Z,1.93
2019-01-14T12:17:40.789Z,2.03
2019-01-14T12:20:10.311Z,1.00
2019-01-14T12:22:38.385Z,0.80
2019-01-14T12:25:06.834Z,0.80
2019-01-14T12:27:34.843Z,1.63
2019-01-14T12:30:07.089Z,1.20
2019-01-14T12:32:35.126Z,1.80
2019-01-14T12:35:03.663Z,2.13
2019-01-14T12:37:31.665Z,1.30
2019-01-14T12:39:59.679Z,0.97
2019-01-14T12:42:27.690Z,1.33
2019-01-14T12:44:55.671Z,1.03
2019-01-14T12:47:23.664Z,2.17
2019-01-14T12:49:51.661Z,1.73
2019-01-14T12:52:19.611Z,1.13
2019-01-14T12:54:47.602Z,1.27
2019-01-14T12:57:15.848Z,2.03
2019-01-14T12:59:43.850Z,1.97
2019-01-14T13:02:11.851Z,0.70
2019-01-14T13:04:39.860Z,1.93
2019-01-14T13:07:08.827Z,1.30
2019-01-14T13:09:36.810Z,0.93
2019-01-14T13:12:05.099Z,1.67
2019-01-14T13:14:33.413Z,1.17
2019-01-14T13:17:01.422Z,0.83
2019-01-14T13:19:29.391Z,1.00
2019-01-14T13:21:58.092Z,1.80
2019-01-14T13:24:26.389Z,0.90
2019-01-14T13:26:54.422Z,1.40
2019-01-14T13:29:22.500Z,1.80
2019-01-14T13:31:50.541Z,0.80
2019-01-14T13:34:18.634Z,1.50
2019-01-14T13:36:46.695Z,0.83
2019-01-14T13:39:14.755Z,0.80
2019-01-14T13:41:42.801Z,0.70
2019-01-14T13:44:10.896Z,1.23
2019-01-14T13:46:38.971Z,1.37
2019-01-14T13:49:07.120Z,1.10
2019-01-14T13:51:35.122Z,1.97
2019-01-14T13:54:03.672Z,1.33
2019-01-14T13:56:31.801Z,2.03
2019-01-14T13:58:59.878Z,1.00
2019-01-14T14:01:27.970Z,3.13
2019-01-14T14:03:57.348Z,1.33
2019-01-14T14:06:25.532Z,1.10
2019-01-14T14:08:53.668Z,0.97
2019-01-14T14:11:21.879Z,1.20
2019-01-14T14:13:49.901Z,1.57
2019-01-14T14:16:18.021Z,1.73
2019-01-14T14:18:46.166Z,1.00
2019-01-14T14:21:14.411Z,1.83
2019-01-14T14:23:43.585Z,1.23
2019-01-14T14:26:11.585Z,1.03
2019-01-14T14:28:39.575Z,1.30
2019-01-14T14:31:07.644Z,0.97
2019-01-14T14:33:36.018Z,1.10
2019-01-14T14:36:04.014Z,1.27
2019-01-14T14:38:32.367Z,2.30
2019-01-14T14:41:00.370Z,1.40
2019-01-14T14:43:28.349Z,1.40
2019-01-14T14:45:57.755Z,0.87
2019-01-14T14:48:25.733Z,0.60
2019-01-14T14:50:53.748Z,1.27
2019-01-14T14:53:21.762Z,1.00
2019-01-14T14:55:49.866Z,0.87
2019-01-14T14:58:18.253Z,1.60
2019-01-14T15:00:46.394Z,0.80
2019-01-14T15:03:14.382Z,1.13
2019-01-14T15:05:42.356Z,0.90
2019-01-14T15:08:10.376Z,0.60
2019-01-14T15:10:38.383Z,0.50
2019-01-14T15:13:06.415Z,0.60
2019-01-14T15:15:34.476Z,0.70
2019-01-14T15:18:03.230Z,0.83
2019-01-14T15:20:31.285Z,1.20
2019-01-14T15:22:59.391Z,0.83
2019-01-14T15:25:27.365Z,0.83
2019-01-14T15:27:55.668Z,0.63
2019-01-14T15:30:27.161Z,0.70
2019-01-14T15:32:55.158Z,1.77
2019-01-14T15:35:23.671Z,2.60
2019-01-14T15:37:52.906Z,1.40
2019-01-14T15:40:21.831Z,1.20
2019-01-14T15:42:49.980Z,1.73
2019-01-14T15:45:18.998Z,4.43
2019-01-14T15:47:47.080Z,3.33
2019-01-14T15:50:15.185Z,5.00
2019-01-14T15:52:43.498Z,2.63
2019-01-14T15:55:15.805Z,3.30
2019-01-14T15:57:43.907Z,3.33
2019-01-14T16:00:14.390Z,3.93
2019-01-14T16:02:42.982Z,2.17
2019-01-14T16:05:13.413Z,2.23
2019-01-14T16:07:41.476Z,7.27
2019-01-14T16:10:16.299Z,6.20
2019-01-14T16:12:44.462Z,16.73
2019-01-14T16:15:13.030Z,12.17
2019-01-14T16:17:41.056Z,12.83
2019-01-14T16:20:12.379Z,10.57
2019-01-14T16:22:40.525Z,11.73
2019-01-14T16:25:09.013Z,16.60
2019-01-14T16:27:38.591Z,12.50
2019-01-14T16:30:14.119Z,6.13
2019-01-14T16:32:42.131Z,4.47
2019-01-14T16:35:12.240Z,2.93
2019-01-14T16:37:40.377Z,2.87
2019-01-14T16:40:08.774Z,1.23
2019-01-14T16:42:37.038Z,1.43
2019-01-14T16:45:08.581Z,1.10
2019-01-14T16:47:36.739Z,2.53
2019-01-14T16:50:06.535Z,1.10
2019-01-14T16:52:34.972Z,0.73
2019-01-14T16:55:04.157Z,1.10
2019-01-14T16:57:32.607Z,1.30
2019-01-14T17:00:01.078Z,0.97
2019-01-14T17:02:29.419Z,0.70
2019-01-14T17:04:57.574Z,0.67
2019-01-14T17:07:26.865Z,0.70
2019-01-14T17:09:54.885Z,0.50
2019-01-14T17:12:22.999Z,0.60
2019-01-14T17:14:51.170Z,0.43
2019-01-14T17:17:19.395Z,0.57
2019-01-14T17:19:48.521Z,0.70
2019-01-14T17:22:16.667Z,0.70
2019-01-14T17:24:45.035Z,0.70
2019-01-14T17:27:13.221Z,1.47
2019-01-14T17:29:41.345Z,1.30
2019-01-14T17:32:09.568Z,1.37
2019-01-14T17:34:37.803Z,3.10
2019-01-14T17:37:05.857Z,2.00
2019-01-14T17:39:34.186Z,2.37
2019-01-14T17:42:03.042Z,1.87
2019-01-14T17:44:31.219Z,2.10
2019-01-14T17:46:59.254Z,2.07
2019-01-14T17:49:27.397Z,1.83
2019-01-14T17:51:55.614Z,1.40
2019-01-14T17:54:24.136Z,1.73
2019-01-14T17:56:52.209Z,2.40
2019-01-14T17:59:22.579Z,1.60
2019-01-14T18:01:50.798Z,2.20
2019-01-14T18:04:19.958Z,2.43
2019-01-14T18:06:48.212Z,2.23
2019-01-14T18:09:16.465Z,1.60
2019-01-14T18:11:44.865Z,1.93
2019-01-14T18:14:13.070Z,2.53
2019-01-14T18:16:41.302Z,1.63
2019-01-14T18:19:09.436Z,1.23
2019-01-14T18:21:37.479Z,1.50
2019-01-14T18:24:05.626Z,1.70
2019-01-14T18:26:33.663Z,1.33
2019-01-14T18:29:01.913Z,1.00
2019-01-14T18:31:30.181Z,0.93
2019-01-14T18:33:59.563Z,0.93
2019-01-14T18:36:27.622Z,1.30
2019-01-14T18:38:55.727Z,1.53
2019-01-14T18:41:24.662Z,1.37
2019-01-14T18:43:52.871Z,1.30
2019-01-14T18:46:21.273Z,0.87
2019-01-14T18:48:49.426Z,1.10
2019-01-14T18:51:17.535Z,1.00
2019-01-14T18:53:45.808Z,0.97
2019-01-14T18:56:14.006Z,0.93
2019-01-14T18:58:42.142Z,1.00
2019-01-14T19:01:10.735Z,0.80
2019-01-14T19:03:38.717Z,0.80
2019-01-14T19:06:07.349Z,1.80
2019-01-14T19:08:35.587Z,0.83
2019-01-14T19:11:03.889Z,0.73
2019-01-14T19:13:31.941Z,0.80
2019-01-14T19:16:01.334Z,1.10
2019-01-14T19:18:29.372Z,0.70
2019-01-14T19:20:57.865Z,1.10
2019-01-14T19:23:26.076Z,1.30
2019-01-14T19:25:54.715Z,1.20
2019-01-14T19:28:22.948Z,1.03
2019-01-14T19:30:51.177Z,1.07
2019-01-14T19:33:19.225Z,0.90
2019-01-14T19:35:47.443Z,0.80
2019-01-14T19:38:15.474Z,0.80
2019-01-14T19:40:43.678Z,1.30
2019-01-14T19:43:11.764Z,1.40
2019-01-14T19:45:39.862Z,1.47
2019-01-14T19:48:08.153Z,1.43
2019-01-14T19:50:36.247Z,1.23
2019-01-14T19:53:04.374Z,1.10
2019-01-14T19:55:32.586Z,1.00
2019-01-14T19:58:01.697Z,1.27
2019-01-14T20:00:31.143Z,0.97
2019-01-14T20:02:59.320Z,1.27
2019-01-14T20:05:27.523Z,1.17
2019-01-14T20:07:56.119Z,1.57
2019-01-14T20:10:24.677Z,1.10
2019-01-14T20:12:53.808Z,1.27
2019-01-14T20:15:22.073Z,2.00
2019-01-14T20:17:50.315Z,2.13
2019-01-14T20:20:18.784Z,1.17
2019-01-14T20:22:46.898Z,3.30
2019-01-14T20:25:15.131Z,2.00
2019-01-14T20:27:43.763Z,1.93
2019-01-14T20:30:20.381Z,1.57
2019-01-14T20:32:48.545Z,1.43
2019-01-14T20:35:17.023Z,1.30
2019-01-14T20:37:45.101Z,2.10
2019-01-14T20:40:13.769Z,1.20
2019-01-14T20:42:42.123Z,1.97
2019-01-14T20:45:11.755Z,1.27
2019-01-14T20:47:39.789Z,1.30
2019-01-14T20:50:10.905Z,1.60
2019-01-14T20:52:40.151Z,1.47
2019-01-14T20:55:08.577Z,1.33
2019-01-14T20:57:36.777Z,2.33
2019-01-14T21:00:13.435Z,1.80
2019-01-14T21:02:42.833Z,1.43
2019-01-14T21:05:10.991Z,1.50
2019-01-14T21:07:39.050Z,2.40
2019-01-14T21:10:09.176Z,1.97
2019-01-14T21:12:38.393Z,3.07
2019-01-14T21:15:07.677Z,1.87
2019-01-14T21:17:36.080Z,1.33
2019-01-14T21:20:07.947Z,0.97
2019-01-14T21:22:36.049Z,1.00
2019-01-14T21:25:04.906Z,0.80
2019-01-14T21:27:33.004Z,0.80
2019-01-14T21:30:03.164Z,1.33
2019-01-14T21:32:31.258Z,0.80
2019-01-14T21:34:59.300Z,0.90
2019-01-14T21:37:27.361Z,0.90
2019-01-14T21:39:55.397Z,1.20
2019-01-14T21:42:24.021Z,1.43
2019-01-14T21:44:52.093Z,1.43
2019-01-14T21:47:20.238Z,1.20
2019-01-14T21:49:48.274Z,3.37
2019-01-14T21:52:16.674Z,1.00
2019-01-14T21:54:44.700Z,1.37
2019-01-14T21:57:12.805Z,1.10
2019-01-14T21:59:40.825Z,1.20
2019-01-14T22:02:08.931Z,0.93
2019-01-14T22:04:37.006Z,1.73
2019-01-14T22:07:05.083Z,1.30
2019-01-14T22:09:33.226Z,1.17
2019-01-14T22:12:04.265Z,1.67
2019-01-14T22:14:32.310Z,0.90
2019-01-14T22:17:00.366Z,1.30
2019-01-14T22:19:28.403Z,1.27
2019-01-14T22:21:56.458Z,1.20
2019-01-14T22:24:24.494Z,0.90
2019-01-14T22:26:52.538Z,1.30
2019-01-14T22:29:20.592Z,1.20
2019-01-14T22:31:49.777Z,1.33
2019-01-14T22:34:17.786Z,1.17
2019-01-14T22:36:45.847Z,1.10
2019-01-14T22:39:13.980Z,1.80
2019-01-14T22:41:45.943Z,1.30
2019-01-14T22:44:12.004Z,2.00
2019-01-14T22:46:40.077Z,1.40
2019-01-14T22:49:08.110Z,2.60
2019-01-14T22:51:36.171Z,2.10
2019-01-14T22:54:05.064Z,2.37
2019-01-14T22:56:33.126Z,1.60
2019-01-14T22:59:01.288Z,1.53
2019-01-14T23:01:36.706Z,1.20
2019-01-14T23:04:05.196Z,1.30
2019-01-14T23:06:33.398Z,1.30
2019-01-14T23:09:01.458Z,1.23
2019-01-14T23:11:29.507Z,1.30
2019-01-14T23:13:57.870Z,1.20
2019-01-14T23:16:25.910Z,1.53
2019-01-14T23:18:53.951Z,3.40
2019-01-14T23:21:22.357Z,1.60
2019-01-14T23:23:50.401Z,1.37
2019-01-14T23:26:18.469Z,1.40
2019-01-14T23:28:46.524Z,1.43
2019-01-14T23:31:14.576Z,1.33
2019-01-14T23:33:42.626Z,1.23
2019-01-14T23:36:10.688Z,2.20
2019-01-14T23:38:38.752Z,1.20
2019-01-14T23:41:06.859Z,1.50
2019-01-14T23:43:35.267Z,1.10
2019-01-14T23:46:04.783Z,1.20
2019-01-14T23:48:32.862Z,1.53
2019-01-14T23:51:01.090Z,1.10
2019-01-14T23:53:29.165Z,1.40
2019-01-14T23:55:57.196Z,1.30
2019-01-14T23:58:25.632Z,2.57
